sensor_id;sensor_type;location;lat;lon;timestamp;P1;durP1;ratioP1;P2;durP2;ratioP2
17175;SDS011;8703;48.996;9.594;2022-10-18T00:01:40;11.13;;;3.73;;
17175;SDS011;8703;48.996;9.594;2022-10-18T00:04:08;11.87;;;3.57;;
17175;SDS011;8703;48.996;9.594;2022-10-18T00:06:35;13.83;;;4.10;;
17175;SDS011;8703;48.996;9.594;2022-10-18T00:09:02;11.17;;;3.63;;
17175;SDS011;8703;48.996;9.594;2022-10-18T00:11:30;11.37;;;3.53;;
17175;SDS011;8703;48.996;9.594;2022-10-18T00:13:57;8.13;;;3.40;;
17175;SDS011;8703;48.996;9.594;2022-10-18T00:16:27;8.13;;;3.40;;
17175;SDS011;8703;48.996;9.594;2022-10-18T00:18:54;10.10;;;2.97;;
17175;SDS011;8703;48.996;9.594;2022-10-18T00:21:23;7.23;;;2.97;;
17175;SDS011;8703;48.996;9.594;2022-10-18T00:23:51;10.60;;;3.07;;
17175;SDS011;8703;48.996;9.594;2022-10-18T00:26:20;8.20;;;2.90;;
17175;SDS011;8703;48.996;9.594;2022-10-18T00:28:49;8.23;;;2.97;;
17175;SDS011;8703;48.996;9.594;2022-10-18T00:31:18;10.40;;;3.00;;
17175;SDS011;8703;48.996;9.594;2022-10-18T00:33:48;9.83;;;3.70;;
17175;SDS011;8703;48.996;9.594;2022-10-18T00:36:17;11.37;;;3.50;;
17175;SDS011;8703;48.996;9.594;2022-10-18T00:38:45;10.20;;;3.60;;
17175;SDS011;8703;48.996;9.594;2022-10-18T00:41:14;11.07;;;3.50;;
17175;SDS011;8703;48.996;9.594;2022-10-18T00:43:52;6.90;;;3.40;;
17175;SDS011;8703;48.996;9.594;2022-10-18T00:46:21;11.23;;;3.20;;
17175;SDS011;8703;48.996;9.594;2022-10-18T00:48:51;9.30;;;3.50;;
17175;SDS011;8703;48.996;9.594;2022-10-18T00:51:19;21.83;;;3.83;;
17175;SDS011;8703;48.996;9.594;2022-10-18T00:53:47;6.60;;;3.70;;
17175;SDS011;8703;48.996;9.594;2022-10-18T00:56:14;14.93;;;4.00;;
17175;SDS011;8703;48.996;9.594;2022-10-18T00:58:43;18.80;;;3.93;;
17175;SDS011;8703;48.996;9.594;2022-10-18T01:01:11;16.27;;;4.40;;
17175;SDS011;8703;48.996;9.594;2022-10-18T01:03:38;12.37;;;4.33;;
17175;SDS011;8703;48.996;9.594;2022-10-18T01:06:07;9.27;;;3.50;;
17175;SDS011;8703;48.996;9.594;2022-10-18T01:08:40;10.00;;;3.53;;
17175;SDS011;8703;48.996;9.594;2022-10-18T01:14:14;17.67;;;4.13;;
17175;SDS011;8703;48.996;9.594;2022-10-18T01:16:48;15.70;;;3.83;;
17175;SDS011;8703;48.996;9.594;2022-10-18T01:19:25;8.57;;;3.70;;
17175;SDS011;8703;48.996;9.594;2022-10-18T01:22:06;19.90;;;3.83;;
17175;SDS011;8703;48.996;9.594;2022-10-18T01:24:44;11.80;;;3.63;;
17175;SDS011;8703;48.996;9.594;2022-10-18T01:27:40;7.60;;;3.10;;
17175;SDS011;8703;48.996;9.594;2022-10-18T01:30:31;13.00;;;3.40;;
17175;SDS011;8703;48.996;9.594;2022-10-18T01:33:16;9.13;;;3.20;;
17175;SDS011;8703;48.996;9.594;2022-10-18T01:35:52;7.77;;;2.93;;
17175;SDS011;8703;48.996;9.594;2022-10-18T01:38:24;16.40;;;3.77;;
17175;SDS011;8703;48.996;9.594;2022-10-18T01:40:52;10.13;;;3.47;;
17175;SDS011;8703;48.996;9.594;2022-10-18T01:43:21;7.30;;;3.40;;
17175;SDS011;8703;48.996;9.594;2022-10-18T01:45:50;9.93;;;3.30;;
17175;SDS011;8703;48.996;9.594;2022-10-18T01:48:19;5.60;;;3.00;;
17175;SDS011;8703;48.996;9.594;2022-10-18T01:50:47;6.63;;;2.97;;
17175;SDS011;8703;48.996;9.594;2022-10-18T01:53:25;10.53;;;3.00;;
17175;SDS011;8703;48.996;9.594;2022-10-18T01:56:11;5.70;;;2.77;;
17175;SDS011;8703;48.996;9.594;2022-10-18T02:01:56;6.67;;;3.03;;
17175;SDS011;8703;48.996;9.594;2022-10-18T02:04:32;6.17;;;3.10;;
17175;SDS011;8703;48.996;9.594;2022-10-18T02:07:05;8.83;;;3.10;;
17175;SDS011;8703;48.996;9.594;2022-10-18T02:09:36;9.07;;;2.90;;
17175;SDS011;8703;48.996;9.594;2022-10-18T02:12:06;6.87;;;3.13;;
17175;SDS011;8703;48.996;9.594;2022-10-18T02:14:35;8.77;;;3.17;;
17175;SDS011;8703;48.996;9.594;2022-10-18T02:17:05;5.53;;;2.80;;
17175;SDS011;8703;48.996;9.594;2022-10-18T02:19:34;9.90;;;2.90;;
17175;SDS011;8703;48.996;9.594;2022-10-18T02:22:04;5.63;;;2.83;;
17175;SDS011;8703;48.996;9.594;2022-10-18T02:24:33;9.47;;;3.13;;
17175;SDS011;8703;48.996;9.594;2022-10-18T02:29:39;10.47;;;2.83;;
17175;SDS011;8703;48.996;9.594;2022-10-18T02:32:09;6.37;;;2.70;;
17175;SDS011;8703;48.996;9.594;2022-10-18T02:34:41;5.20;;;2.60;;
17175;SDS011;8703;48.996;9.594;2022-10-18T02:37:11;8.80;;;3.00;;
17175;SDS011;8703;48.996;9.594;2022-10-18T02:39:41;6.83;;;2.63;;
17175;SDS011;8703;48.996;9.594;2022-10-18T02:42:11;6.97;;;2.90;;
17175;SDS011;8703;48.996;9.594;2022-10-18T02:44:38;8.13;;;2.87;;
17175;SDS011;8703;48.996;9.594;2022-10-18T02:47:06;7.90;;;3.17;;
17175;SDS011;8703;48.996;9.594;2022-10-18T02:49:36;7.13;;;3.07;;
17175;SDS011;8703;48.996;9.594;2022-10-18T02:52:03;9.10;;;3.57;;
17175;SDS011;8703;48.996;9.594;2022-10-18T02:54:30;8.67;;;3.30;;
17175;SDS011;8703;48.996;9.594;2022-10-18T02:56:58;6.63;;;3.40;;
17175;SDS011;8703;48.996;9.594;2022-10-18T02:59:25;8.40;;;3.10;;
17175;SDS011;8703;48.996;9.594;2022-10-18T03:01:53;9.63;;;3.10;;
17175;SDS011;8703;48.996;9.594;2022-10-18T03:04:21;9.27;;;2.90;;
17175;SDS011;8703;48.996;9.594;2022-10-18T03:06:49;7.77;;;2.73;;
17175;SDS011;8703;48.996;9.594;2022-10-18T03:09:16;8.53;;;2.80;;
17175;SDS011;8703;48.996;9.594;2022-10-18T03:11:43;10.30;;;2.60;;
17175;SDS011;8703;48.996;9.594;2022-10-18T03:14:11;9.53;;;2.70;;
17175;SDS011;8703;48.996;9.594;2022-10-18T03:16:38;7.13;;;2.73;;
17175;SDS011;8703;48.996;9.594;2022-10-18T03:19:06;6.53;;;3.00;;
17175;SDS011;8703;48.996;9.594;2022-10-18T03:21:34;6.87;;;3.17;;
17175;SDS011;8703;48.996;9.594;2022-10-18T03:24:02;7.47;;;3.27;;
17175;SDS011;8703;48.996;9.594;2022-10-18T03:26:30;6.30;;;3.10;;
17175;SDS011;8703;48.996;9.594;2022-10-18T03:28:57;11.20;;;3.00;;
17175;SDS011;8703;48.996;9.594;2022-10-18T03:31:24;7.53;;;3.17;;
17175;SDS011;8703;48.996;9.594;2022-10-18T03:33:52;8.80;;;3.20;;
17175;SDS011;8703;48.996;9.594;2022-10-18T03:36:19;5.43;;;2.93;;
17175;SDS011;8703;48.996;9.594;2022-10-18T03:38:48;7.77;;;3.03;;
17175;SDS011;8703;48.996;9.594;2022-10-18T03:41:15;5.27;;;3.10;;
17175;SDS011;8703;48.996;9.594;2022-10-18T03:43:44;8.43;;;3.03;;
17175;SDS011;8703;48.996;9.594;2022-10-18T03:46:12;5.03;;;2.80;;
17175;SDS011;8703;48.996;9.594;2022-10-18T03:48:39;5.53;;;2.90;;
17175;SDS011;8703;48.996;9.594;2022-10-18T03:51:06;8.70;;;3.20;;
17175;SDS011;8703;48.996;9.594;2022-10-18T03:53:34;6.20;;;3.10;;
17175;SDS011;8703;48.996;9.594;2022-10-18T03:56:03;11.73;;;3.10;;
17175;SDS011;8703;48.996;9.594;2022-10-18T03:58:30;10.63;;;3.53;;
17175;SDS011;8703;48.996;9.594;2022-10-18T04:00:58;7.00;;;3.70;;
17175;SDS011;8703;48.996;9.594;2022-10-18T04:03:25;6.40;;;3.60;;
17175;SDS011;8703;48.996;9.594;2022-10-18T04:05:53;8.07;;;3.50;;
17175;SDS011;8703;48.996;9.594;2022-10-18T04:08:21;8.17;;;3.60;;
17175;SDS011;8703;48.996;9.594;2022-10-18T04:10:48;7.50;;;3.50;;
17175;SDS011;8703;48.996;9.594;2022-10-18T04:13:17;7.80;;;3.57;;
17175;SDS011;8703;48.996;9.594;2022-10-18T04:15:45;10.20;;;3.70;;
17175;SDS011;8703;48.996;9.594;2022-10-18T04:18:12;5.60;;;3.40;;
17175;SDS011;8703;48.996;9.594;2022-10-18T04:20:40;4.27;;;3.20;;
17175;SDS011;8703;48.996;9.594;2022-10-18T04:23:07;10.13;;;3.60;;
17175;SDS011;8703;48.996;9.594;2022-10-18T04:25:34;6.30;;;3.23;;
17175;SDS011;8703;48.996;9.594;2022-10-18T04:28:02;6.77;;;3.80;;
17175;SDS011;8703;48.996;9.594;2022-10-18T04:30:31;8.07;;;3.50;;
17175;SDS011;8703;48.996;9.594;2022-10-18T04:32:58;8.83;;;3.70;;
17175;SDS011;8703;48.996;9.594;2022-10-18T04:35:25;10.17;;;3.90;;
17175;SDS011;8703;48.996;9.594;2022-10-18T04:37:53;9.43;;;3.53;;
17175;SDS011;8703;48.996;9.594;2022-10-18T04:40:20;6.40;;;3.93;;
17175;SDS011;8703;48.996;9.594;2022-10-18T04:42:48;11.50;;;3.87;;
17175;SDS011;8703;48.996;9.594;2022-10-18T04:45:15;11.67;;;3.90;;
17175;SDS011;8703;48.996;9.594;2022-10-18T04:47:44;8.70;;;4.10;;
17175;SDS011;8703;48.996;9.594;2022-10-18T04:50:11;11.97;;;4.07;;
17175;SDS011;8703;48.996;9.594;2022-10-18T04:52:38;8.50;;;4.17;;
17175;SDS011;8703;48.996;9.594;2022-10-18T04:55:06;9.63;;;3.70;;
17175;SDS011;8703;48.996;9.594;2022-10-18T04:57:34;7.40;;;4.20;;
17175;SDS011;8703;48.996;9.594;2022-10-18T05:00:01;8.50;;;4.23;;
17175;SDS011;8703;48.996;9.594;2022-10-18T05:02:29;8.67;;;4.20;;
17175;SDS011;8703;48.996;9.594;2022-10-18T05:04:58;9.20;;;4.00;;
17175;SDS011;8703;48.996;9.594;2022-10-18T05:07:25;11.33;;;4.13;;
17175;SDS011;8703;48.996;9.594;2022-10-18T05:09:53;7.67;;;4.13;;
17175;SDS011;8703;48.996;9.594;2022-10-18T05:12:20;9.10;;;4.50;;
17175;SDS011;8703;48.996;9.594;2022-10-18T05:14:47;8.57;;;4.20;;
17175;SDS011;8703;48.996;9.594;2022-10-18T05:17:15;8.50;;;4.00;;
17175;SDS011;8703;48.996;9.594;2022-10-18T05:19:42;10.87;;;3.60;;
17175;SDS011;8703;48.996;9.594;2022-10-18T05:22:11;9.33;;;4.03;;
17175;SDS011;8703;48.996;9.594;2022-10-18T05:24:38;13.97;;;5.70;;
17175;SDS011;8703;48.996;9.594;2022-10-18T05:27:06;9.60;;;4.93;;
17175;SDS011;8703;48.996;9.594;2022-10-18T05:29:34;11.47;;;5.13;;
17175;SDS011;8703;48.996;9.594;2022-10-18T05:32:01;10.20;;;4.47;;
17175;SDS011;8703;48.996;9.594;2022-10-18T05:34:29;10.37;;;4.67;;
17175;SDS011;8703;48.996;9.594;2022-10-18T05:36:57;15.37;;;4.87;;
17175;SDS011;8703;48.996;9.594;2022-10-18T05:39:26;10.80;;;4.67;;
17175;SDS011;8703;48.996;9.594;2022-10-18T05:41:53;9.17;;;5.13;;
17175;SDS011;8703;48.996;9.594;2022-10-18T05:44:22;10.53;;;4.50;;
17175;SDS011;8703;48.996;9.594;2022-10-18T05:46:49;7.97;;;4.23;;
17175;SDS011;8703;48.996;9.594;2022-10-18T05:49:17;9.67;;;4.80;;
17175;SDS011;8703;48.996;9.594;2022-10-18T05:51:44;10.87;;;4.60;;
17175;SDS011;8703;48.996;9.594;2022-10-18T05:54:12;15.23;;;4.90;;
17175;SDS011;8703;48.996;9.594;2022-10-18T05:56:41;9.37;;;4.20;;
17175;SDS011;8703;48.996;9.594;2022-10-18T05:59:08;13.60;;;4.13;;
17175;SDS011;8703;48.996;9.594;2022-10-18T06:01:36;6.03;;;3.60;;
17175;SDS011;8703;48.996;9.594;2022-10-18T06:04:03;12.37;;;4.50;;
17175;SDS011;8703;48.996;9.594;2022-10-18T06:06:31;10.90;;;4.00;;
17175;SDS011;8703;48.996;9.594;2022-10-18T06:08:58;14.27;;;4.17;;
17175;SDS011;8703;48.996;9.594;2022-10-18T06:11:27;8.90;;;4.20;;
17175;SDS011;8703;48.996;9.594;2022-10-18T06:13:56;6.77;;;4.47;;
17175;SDS011;8703;48.996;9.594;2022-10-18T06:16:24;11.60;;;5.90;;
17175;SDS011;8703;48.996;9.594;2022-10-18T06:18:53;13.10;;;4.77;;
17175;SDS011;8703;48.996;9.594;2022-10-18T06:21:21;12.10;;;4.93;;
17175;SDS011;8703;48.996;9.594;2022-10-18T06:23:50;12.73;;;4.43;;
17175;SDS011;8703;48.996;9.594;2022-10-18T06:26:18;10.27;;;3.73;;
17175;SDS011;8703;48.996;9.594;2022-10-18T06:28:45;12.13;;;4.00;;
17175;SDS011;8703;48.996;9.594;2022-10-18T06:31:14;11.57;;;3.70;;
17175;SDS011;8703;48.996;9.594;2022-10-18T06:33:42;13.53;;;3.80;;
17175;SDS011;8703;48.996;9.594;2022-10-18T06:36:11;16.50;;;4.60;;
17175;SDS011;8703;48.996;9.594;2022-10-18T06:38:39;12.07;;;4.70;;
17175;SDS011;8703;48.996;9.594;2022-10-18T06:41:07;15.20;;;6.77;;
17175;SDS011;8703;48.996;9.594;2022-10-18T06:43:34;13.20;;;5.43;;
17175;SDS011;8703;48.996;9.594;2022-10-18T06:46:02;13.23;;;5.63;;
17175;SDS011;8703;48.996;9.594;2022-10-18T06:48:33;10.67;;;5.50;;
17175;SDS011;8703;48.996;9.594;2022-10-18T06:51:01;10.40;;;5.17;;
17175;SDS011;8703;48.996;9.594;2022-10-18T06:53:31;10.30;;;4.53;;
17175;SDS011;8703;48.996;9.594;2022-10-18T06:55:59;9.53;;;4.40;;
17175;SDS011;8703;48.996;9.594;2022-10-18T06:58:27;17.73;;;5.77;;
17175;SDS011;8703;48.996;9.594;2022-10-18T07:00:55;13.63;;;5.00;;
17175;SDS011;8703;48.996;9.594;2022-10-18T07:03:22;14.10;;;5.50;;
17175;SDS011;8703;48.996;9.594;2022-10-18T07:05:51;11.00;;;6.10;;
17175;SDS011;8703;48.996;9.594;2022-10-18T07:08:18;12.70;;;6.90;;
17175;SDS011;8703;48.996;9.594;2022-10-18T07:10:49;19.50;;;7.50;;
17175;SDS011;8703;48.996;9.594;2022-10-18T07:13:17;13.93;;;9.07;;
17175;SDS011;8703;48.996;9.594;2022-10-18T07:15:45;14.93;;;7.90;;
17175;SDS011;8703;48.996;9.594;2022-10-18T07:18:12;24.00;;;11.20;;
17175;SDS011;8703;48.996;9.594;2022-10-18T07:20:40;18.20;;;11.13;;
17175;SDS011;8703;48.996;9.594;2022-10-18T07:23:08;17.37;;;9.77;;
17175;SDS011;8703;48.996;9.594;2022-10-18T07:25:36;21.43;;;13.60;;
17175;SDS011;8703;48.996;9.594;2022-10-18T07:28:03;22.87;;;13.60;;
17175;SDS011;8703;48.996;9.594;2022-10-18T07:30:30;17.63;;;12.80;;
17175;SDS011;8703;48.996;9.594;2022-10-18T07:32:58;12.60;;;7.13;;
17175;SDS011;8703;48.996;9.594;2022-10-18T07:35:26;18.83;;;10.20;;
17175;SDS011;8703;48.996;9.594;2022-10-18T07:37:53;16.10;;;8.57;;
17175;SDS011;8703;48.996;9.594;2022-10-18T07:40:22;13.80;;;9.03;;
17175;SDS011;8703;48.996;9.594;2022-10-18T07:42:49;13.63;;;8.17;;
17175;SDS011;8703;48.996;9.594;2022-10-18T07:45:20;14.20;;;7.10;;
17175;SDS011;8703;48.996;9.594;2022-10-18T07:47:52;10.52;;;6.15;;
17175;SDS011;8703;48.996;9.594;2022-10-18T07:50:20;10.40;;;6.90;;
17175;SDS011;8703;48.996;9.594;2022-10-18T07:52:47;9.40;;;5.47;;
17175;SDS011;8703;48.996;9.594;2022-10-18T07:55:15;12.97;;;5.30;;
17175;SDS011;8703;48.996;9.594;2022-10-18T07:57:43;13.83;;;6.63;;
17175;SDS011;8703;48.996;9.594;2022-10-18T08:00:11;10.00;;;7.05;;
17175;SDS011;8703;48.996;9.594;2022-10-18T08:02:39;14.75;;;6.63;;
17175;SDS011;8703;48.996;9.594;2022-10-18T08:05:06;10.77;;;6.60;;
17175;SDS011;8703;48.996;9.594;2022-10-18T08:07:34;12.82;;;5.97;;
17175;SDS011;8703;48.996;9.594;2022-10-18T08:10:02;8.02;;;5.60;;
17175;SDS011;8703;48.996;9.594;2022-10-18T08:12:29;8.35;;;5.75;;
17175;SDS011;8703;48.996;9.594;2022-10-18T08:14:58;12.30;;;6.03;;
17175;SDS011;8703;48.996;9.594;2022-10-18T08:17:26;11.00;;;5.70;;
17175;SDS011;8703;48.996;9.594;2022-10-18T08:19:53;12.68;;;5.72;;
17175;SDS011;8703;48.996;9.594;2022-10-18T08:22:21;8.55;;;6.15;;
17175;SDS011;8703;48.996;9.594;2022-10-18T08:24:48;10.05;;;6.20;;
17175;SDS011;8703;48.996;9.594;2022-10-18T08:27:16;7.53;;;5.22;;
17175;SDS011;8703;48.996;9.594;2022-10-18T08:29:43;10.40;;;5.95;;
17175;SDS011;8703;48.996;9.594;2022-10-18T08:32:13;9.00;;;5.45;;
17175;SDS011;8703;48.996;9.594;2022-10-18T08:34:40;9.35;;;5.10;;
17175;SDS011;8703;48.996;9.594;2022-10-18T08:37:08;7.45;;;5.45;;
17175;SDS011;8703;48.996;9.594;2022-10-18T08:39:35;13.88;;;5.53;;
17175;SDS011;8703;48.996;9.594;2022-10-18T08:42:12;9.88;;;5.05;;
17175;SDS011;8703;48.996;9.594;2022-10-18T08:44:46;10.90;;;5.85;;
17175;SDS011;8703;48.996;9.594;2022-10-18T08:47:16;8.43;;;5.35;;
17175;SDS011;8703;48.996;9.594;2022-10-18T08:49:45;8.80;;;4.85;;
17175;SDS011;8703;48.996;9.594;2022-10-18T08:52:15;9.05;;;5.15;;
17175;SDS011;8703;48.996;9.594;2022-10-18T08:55:03;9.38;;;4.68;;
17175;SDS011;8703;48.996;9.594;2022-10-18T08:57:35;5.88;;;4.10;;
17175;SDS011;8703;48.996;9.594;2022-10-18T09:00:04;11.50;;;4.20;;
17175;SDS011;8703;48.996;9.594;2022-10-18T09:02:43;9.88;;;4.45;;
17175;SDS011;8703;48.996;9.594;2022-10-18T09:05:24;9.27;;;4.38;;
17175;SDS011;8703;48.996;9.594;2022-10-18T09:10:50;5.20;;;4.03;;
17175;SDS011;8703;48.996;9.594;2022-10-18T09:13:27;9.15;;;4.22;;
17175;SDS011;8703;48.996;9.594;2022-10-18T09:16:16;7.18;;;4.22;;
17175;SDS011;8703;48.996;9.594;2022-10-18T09:18:50;8.45;;;4.05;;
17175;SDS011;8703;48.996;9.594;2022-10-18T09:21:35;8.77;;;4.22;;
17175;SDS011;8703;48.996;9.594;2022-10-18T09:24:09;8.27;;;3.80;;
17175;SDS011;8703;48.996;9.594;2022-10-18T09:26:40;5.28;;;3.50;;
17175;SDS011;8703;48.996;9.594;2022-10-18T09:29:14;6.68;;;3.85;;
17175;SDS011;8703;48.996;9.594;2022-10-18T09:31:51;6.20;;;3.15;;
17175;SDS011;8703;48.996;9.594;2022-10-18T09:34:25;7.82;;;3.10;;
17175;SDS011;8703;48.996;9.594;2022-10-18T09:36:57;4.57;;;2.85;;
17175;SDS011;8703;48.996;9.594;2022-10-18T09:39:27;6.03;;;3.22;;
17175;SDS011;8703;48.996;9.594;2022-10-18T09:41:56;5.63;;;3.10;;
17175;SDS011;8703;48.996;9.594;2022-10-18T09:44:26;3.97;;;3.03;;
17175;SDS011;8703;48.996;9.594;2022-10-18T09:46:55;6.72;;;3.40;;
17175;SDS011;8703;48.996;9.594;2022-10-18T09:49:27;6.13;;;3.10;;
17175;SDS011;8703;48.996;9.594;2022-10-18T09:51:56;4.55;;;3.10;;
17175;SDS011;8703;48.996;9.594;2022-10-18T09:54:27;5.03;;;3.15;;
17175;SDS011;8703;48.996;9.594;2022-10-18T09:57:01;6.18;;;3.03;;
17175;SDS011;8703;48.996;9.594;2022-10-18T09:59:34;7.05;;;2.80;;
17175;SDS011;8703;48.996;9.594;2022-10-18T10:02:03;8.30;;;3.00;;
17175;SDS011;8703;48.996;9.594;2022-10-18T10:04:32;5.88;;;2.90;;
17175;SDS011;8703;48.996;9.594;2022-10-18T10:07:00;5.72;;;3.05;;
17175;SDS011;8703;48.996;9.594;2022-10-18T10:09:28;4.28;;;2.58;;
17175;SDS011;8703;48.996;9.594;2022-10-18T10:11:56;5.10;;;2.90;;
17175;SDS011;8703;48.996;9.594;2022-10-18T10:14:24;5.55;;;2.92;;
17175;SDS011;8703;48.996;9.594;2022-10-18T10:16:54;5.30;;;2.78;;
17175;SDS011;8703;48.996;9.594;2022-10-18T10:19:26;4.68;;;2.60;;
17175;SDS011;8703;48.996;9.594;2022-10-18T10:22:00;4.10;;;2.85;;
17175;SDS011;8703;48.996;9.594;2022-10-18T10:24:33;4.95;;;2.70;;
17175;SDS011;8703;48.996;9.594;2022-10-18T10:27:13;3.08;;;2.65;;
17175;SDS011;8703;48.996;9.594;2022-10-18T10:29:50;8.27;;;3.00;;
17175;SDS011;8703;48.996;9.594;2022-10-18T10:32:21;4.05;;;2.88;;
17175;SDS011;8703;48.996;9.594;2022-10-18T10:34:50;8.63;;;2.83;;
17175;SDS011;8703;48.996;9.594;2022-10-18T10:37:32;6.03;;;3.10;;
17175;SDS011;8703;48.996;9.594;2022-10-18T10:40:05;6.03;;;3.17;;
17175;SDS011;8703;48.996;9.594;2022-10-18T10:45:40;3.88;;;2.40;;
17175;SDS011;8703;48.996;9.594;2022-10-18T10:48:20;4.32;;;2.75;;
17175;SDS011;8703;48.996;9.594;2022-10-18T10:50:52;6.28;;;2.80;;
17175;SDS011;8703;48.996;9.594;2022-10-18T10:53:26;7.63;;;2.95;;
17175;SDS011;8703;48.996;9.594;2022-10-18T10:55:55;5.43;;;2.60;;
17175;SDS011;8703;48.996;9.594;2022-10-18T10:58:23;5.35;;;2.90;;
17175;SDS011;8703;48.996;9.594;2022-10-18T11:00:53;4.47;;;2.67;;
17175;SDS011;8703;48.996;9.594;2022-10-18T11:03:22;6.18;;;2.58;;
17175;SDS011;8703;48.996;9.594;2022-10-18T11:05:51;4.82;;;2.78;;
17175;SDS011;8703;48.996;9.594;2022-10-18T11:08:21;7.68;;;2.60;;
17175;SDS011;8703;48.996;9.594;2022-10-18T11:10:57;4.00;;;2.53;;
17175;SDS011;8703;48.996;9.594;2022-10-18T11:13:31;6.03;;;2.70;;
17175;SDS011;8703;48.996;9.594;2022-10-18T11:16:11;5.35;;;2.60;;
17175;SDS011;8703;48.996;9.594;2022-10-18T11:18:40;5.25;;;2.58;;
17175;SDS011;8703;48.996;9.594;2022-10-18T11:21:12;3.75;;;2.50;;
17175;SDS011;8703;48.996;9.594;2022-10-18T11:23:43;7.63;;;2.70;;
17175;SDS011;8703;48.996;9.594;2022-10-18T11:26:17;5.68;;;2.60;;
17175;SDS011;8703;48.996;9.594;2022-10-18T11:28:53;5.95;;;2.63;;
17175;SDS011;8703;48.996;9.594;2022-10-18T11:31:31;6.18;;;2.65;;
17175;SDS011;8703;48.996;9.594;2022-10-18T11:34:08;5.00;;;2.80;;
17175;SDS011;8703;48.996;9.594;2022-10-18T11:36:44;4.82;;;2.72;;
17175;SDS011;8703;48.996;9.594;2022-10-18T11:39:21;3.88;;;2.60;;
17175;SDS011;8703;48.996;9.594;2022-10-18T11:41:53;4.90;;;2.40;;
17175;SDS011;8703;48.996;9.594;2022-10-18T11:44:25;4.82;;;2.58;;
17175;SDS011;8703;48.996;9.594;2022-10-18T11:46:59;5.50;;;2.70;;
17175;SDS011;8703;48.996;9.594;2022-10-18T11:49:33;4.20;;;2.83;;
17175;SDS011;8703;48.996;9.594;2022-10-18T11:52:14;6.07;;;2.70;;
17175;SDS011;8703;48.996;9.594;2022-10-18T11:54:51;4.78;;;2.80;;
17175;SDS011;8703;48.996;9.594;2022-10-18T11:57:30;4.95;;;2.63;;
17175;SDS011;8703;48.996;9.594;2022-10-18T12:00:06;4.47;;;2.70;;
17175;SDS011;8703;48.996;9.594;2022-10-18T12:02:56;6.35;;;2.88;;
17175;SDS011;8703;48.996;9.594;2022-10-18T12:05:29;5.80;;;2.83;;
17175;SDS011;8703;48.996;9.594;2022-10-18T12:07:57;5.82;;;2.88;;
17175;SDS011;8703;48.996;9.594;2022-10-18T12:10:28;5.78;;;2.63;;
17175;SDS011;8703;48.996;9.594;2022-10-18T12:12:58;7.75;;;2.70;;
17175;SDS011;8703;48.996;9.594;2022-10-18T12:15:28;6.65;;;3.13;;
17175;SDS011;8703;48.996;9.594;2022-10-18T12:17:59;6.05;;;2.90;;
17175;SDS011;8703;48.996;9.594;2022-10-18T12:20:31;5.30;;;2.67;;
17175;SDS011;8703;48.996;9.594;2022-10-18T12:23:00;6.22;;;2.70;;
17175;SDS011;8703;48.996;9.594;2022-10-18T12:25:29;8.65;;;2.88;;
17175;SDS011;8703;48.996;9.594;2022-10-18T12:28:02;6.53;;;3.22;;
17175;SDS011;8703;48.996;9.594;2022-10-18T12:30:33;7.10;;;2.63;;
17175;SDS011;8703;48.996;9.594;2022-10-18T12:33:06;7.10;;;2.80;;
17175;SDS011;8703;48.996;9.594;2022-10-18T12:35:38;4.75;;;2.60;;
17175;SDS011;8703;48.996;9.594;2022-10-18T12:38:16;5.05;;;2.80;;
17175;SDS011;8703;48.996;9.594;2022-10-18T12:40:47;7.20;;;2.78;;
17175;SDS011;8703;48.996;9.594;2022-10-18T12:43:17;5.18;;;2.70;;
17175;SDS011;8703;48.996;9.594;2022-10-18T12:45:49;6.47;;;2.90;;
17175;SDS011;8703;48.996;9.594;2022-10-18T12:48:26;4.95;;;2.67;;
17175;SDS011;8703;48.996;9.594;2022-10-18T12:50:56;3.53;;;2.30;;
17175;SDS011;8703;48.996;9.594;2022-10-18T12:53:26;3.40;;;2.60;;
17175;SDS011;8703;48.996;9.594;2022-10-18T12:55:54;6.15;;;2.45;;
17175;SDS011;8703;48.996;9.594;2022-10-18T12:58:53;4.10;;;2.60;;
17175;SDS011;8703;48.996;9.594;2022-10-18T13:02:27;6.13;;;2.70;;
17175;SDS011;8703;48.996;9.594;2022-10-18T13:04:55;4.25;;;2.80;;
17175;SDS011;8703;48.996;9.594;2022-10-18T13:07:36;3.50;;;2.78;;
17175;SDS011;8703;48.996;9.594;2022-10-18T13:16:04;3.67;;;2.20;;
17175;SDS011;8703;48.996;9.594;2022-10-18T13:18:49;3.45;;;2.58;;
17175;SDS011;8703;48.996;9.594;2022-10-18T13:21:21;2.92;;;2.20;;
17175;SDS011;8703;48.996;9.594;2022-10-18T13:24:09;4.68;;;2.30;;
17175;SDS011;8703;48.996;9.594;2022-10-18T13:26:54;3.47;;;2.10;;
17175;SDS011;8703;48.996;9.594;2022-10-18T13:29:38;3.00;;;1.80;;
17175;SDS011;8703;48.996;9.594;2022-10-18T13:32:37;3.08;;;1.92;;
17175;SDS011;8703;48.996;9.594;2022-10-18T13:38:25;4.43;;;1.90;;
17175;SDS011;8703;48.996;9.594;2022-10-18T13:41:07;3.22;;;2.00;;
17175;SDS011;8703;48.996;9.594;2022-10-18T13:43:46;4.45;;;1.60;;
17175;SDS011;8703;48.996;9.594;2022-10-18T13:46:21;2.17;;;1.77;;
17175;SDS011;8703;48.996;9.594;2022-10-18T13:48:51;3.88;;;1.58;;
17175;SDS011;8703;48.996;9.594;2022-10-18T13:51:26;3.35;;;1.60;;
17175;SDS011;8703;48.996;9.594;2022-10-18T13:54:03;4.70;;;1.67;;
17175;SDS011;8703;48.996;9.594;2022-10-18T13:56:43;2.42;;;1.70;;
17175;SDS011;8703;48.996;9.594;2022-10-18T13:59:27;3.33;;;1.65;;
17175;SDS011;8703;48.996;9.594;2022-10-18T14:05:15;2.17;;;1.63;;
17175;SDS011;8703;48.996;9.594;2022-10-18T14:08:10;5.53;;;1.90;;
17175;SDS011;8703;48.996;9.594;2022-10-18T14:10:42;3.72;;;1.83;;
17175;SDS011;8703;48.996;9.594;2022-10-18T14:13:16;3.78;;;1.83;;
17175;SDS011;8703;48.996;9.594;2022-10-18T14:15:46;2.17;;;1.75;;
17175;SDS011;8703;48.996;9.594;2022-10-18T14:18:16;3.63;;;2.00;;
17175;SDS011;8703;48.996;9.594;2022-10-18T14:20:47;3.10;;;1.90;;
17175;SDS011;8703;48.996;9.594;2022-10-18T14:23:18;3.15;;;2.10;;
17175;SDS011;8703;48.996;9.594;2022-10-18T14:25:47;2.75;;;2.17;;
17175;SDS011;8703;48.996;9.594;2022-10-18T14:28:15;3.60;;;1.98;;
17175;SDS011;8703;48.996;9.594;2022-10-18T14:30:50;2.30;;;1.83;;
17175;SDS011;8703;48.996;9.594;2022-10-18T14:33:30;2.58;;;2.00;;
17175;SDS011;8703;48.996;9.594;2022-10-18T14:36:04;3.33;;;2.10;;
17175;SDS011;8703;48.996;9.594;2022-10-18T14:38:33;3.00;;;2.20;;
17175;SDS011;8703;48.996;9.594;2022-10-18T14:41:12;3.70;;;2.10;;
17175;SDS011;8703;48.996;9.594;2022-10-18T14:43:41;2.40;;;2.20;;
17175;SDS011;8703;48.996;9.594;2022-10-18T14:46:10;2.78;;;2.40;;
17175;SDS011;8703;48.996;9.594;2022-10-18T14:48:49;3.38;;;2.35;;
17175;SDS011;8703;48.996;9.594;2022-10-18T14:51:22;3.55;;;2.58;;
17175;SDS011;8703;48.996;9.594;2022-10-18T14:53:50;6.13;;;2.65;;
17175;SDS011;8703;48.996;9.594;2022-10-18T14:56:20;4.85;;;2.70;;
17175;SDS011;8703;48.996;9.594;2022-10-18T14:58:49;3.40;;;2.30;;
17175;SDS011;8703;48.996;9.594;2022-10-18T15:01:18;5.13;;;2.60;;
17175;SDS011;8703;48.996;9.594;2022-10-18T15:03:47;5.20;;;2.47;;
17175;SDS011;8703;48.996;9.594;2022-10-18T15:06:15;3.03;;;2.40;;
17175;SDS011;8703;48.996;9.594;2022-10-18T15:08:46;4.85;;;2.80;;
17175;SDS011;8703;48.996;9.594;2022-10-18T15:11:16;2.97;;;2.75;;
17175;SDS011;8703;48.996;9.594;2022-10-18T15:13:45;2.88;;;2.50;;
17175;SDS011;8703;48.996;9.594;2022-10-18T15:16:15;3.25;;;2.53;;
17175;SDS011;8703;48.996;9.594;2022-10-18T15:18:57;3.47;;;2.13;;
17175;SDS011;8703;48.996;9.594;2022-10-18T15:21:29;3.40;;;2.50;;
17175;SDS011;8703;48.996;9.594;2022-10-18T15:26:51;7.70;;;2.55;;
17175;SDS011;8703;48.996;9.594;2022-10-18T15:29:22;3.03;;;2.40;;
17175;SDS011;8703;48.996;9.594;2022-10-18T15:31:50;3.95;;;2.65;;
17175;SDS011;8703;48.996;9.594;2022-10-18T15:34:19;8.70;;;3.33;;
17175;SDS011;8703;48.996;9.594;2022-10-18T15:36:48;5.75;;;2.75;;
17175;SDS011;8703;48.996;9.594;2022-10-18T15:39:17;3.83;;;2.50;;
17175;SDS011;8703;48.996;9.594;2022-10-18T15:41:47;18.90;;;14.82;;
17175;SDS011;8703;48.996;9.594;2022-10-18T15:44:20;18.00;;;12.00;;
17175;SDS011;8703;48.996;9.594;2022-10-18T15:46:50;11.60;;;5.72;;
17175;SDS011;8703;48.996;9.594;2022-10-18T15:49:46;3.63;;;2.90;;
17175;SDS011;8703;48.996;9.594;2022-10-18T15:55:40;5.25;;;2.65;;